createdAt,value
2023-01-10T00:04:18.650Z,77.07
2023-01-10T00:09:27.536Z,77.07
2023-01-10T00:14:35.769Z,76.89
2023-01-10T00:19:44.550Z,77.04
2023-01-10T00:24:52.697Z,77.08
2023-01-10T00:30:05.554Z,77.02
2023-01-10T00:35:14.697Z,77.11
2023-01-10T00:40:23.252Z,77.14
2023-01-10T00:45:31.415Z,76.90
2023-01-10T00:50:39.886Z,76.98
2023-01-10T00:55:48.281Z,77.12
2023-01-10T01:00:57.476Z,77.10
2023-01-10T01:06:08.499Z,77.23
2023-01-10T01:11:16.929Z,77.12
2023-01-10T01:16:25.562Z,77.01
2023-01-10T01:21:34.516Z,77.18
2023-01-10T01:26:43.198Z,76.95
2023-01-10T01:31:52.056Z,76.99
2023-01-10T01:37:00.750Z,77.18
2023-01-10T01:42:22.914Z,77.07
2023-01-10T01:47:31.602Z,77.32
2023-01-10T01:52:39.869Z,77.25
2023-01-10T01:57:49.818Z,77.28
2023-01-10T02:03:03.325Z,77.06
2023-01-10T02:08:12.624Z,77.10
2023-01-10T02:13:24.085Z,77.19
2023-01-10T02:18:32.323Z,77.07
2023-01-10T02:24:14.742Z,77.20
2023-01-10T02:29:45.695Z,77.29
2023-01-10T02:35:11.029Z,77.30
2023-01-10T02:40:32.854Z,77.27
2023-01-10T02:45:47.745Z,77.18
2023-01-10T02:51:02.204Z,77.22
2023-01-10T02:56:40.994Z,76.98
2023-01-10T03:01:57.104Z,77.11
2023-01-10T03:07:15.646Z,77.11
2023-01-10T03:12:30.034Z,77.14
2023-01-10T03:17:41.122Z,77.07
2023-01-10T03:22:53.654Z,77.00
2023-01-10T03:28:06.425Z,77.11
2023-01-10T03:33:17.805Z,77.00
2023-01-10T03:38:33.088Z,77.22
2023-01-10T03:44:05.346Z,77.22
2023-01-10T03:49:16.062Z,77.20
2023-01-10T03:54:24.405Z,77.15
2023-01-10T03:59:32.966Z,77.13
2023-01-10T04:04:41.684Z,77.21
2023-01-10T04:09:49.852Z,77.21
2023-01-10T04:14:58.192Z,76.94
2023-01-10T04:20:07.094Z,77.18
2023-01-10T04:25:15.925Z,77.17
2023-01-10T04:30:24.739Z,77.16
2023-01-10T04:35:33.013Z,77.16
2023-01-10T04:40:41.295Z,77.11
2023-01-10T04:45:49.932Z,77.13
2023-01-10T04:50:58.408Z,77.01
2023-01-10T04:56:18.625Z,77.21
2023-01-10T05:01:27.857Z,76.97
2023-01-10T05:06:37.493Z,76.94
2023-01-10T05:11:45.875Z,77.08
2023-01-10T05:16:54.475Z,76.83
2023-01-10T05:22:02.725Z,76.75
2023-01-10T05:27:10.651Z,76.88
2023-01-10T05:32:19.060Z,76.89
2023-01-10T05:37:27.539Z,76.72
2023-01-10T05:42:36.215Z,76.97
2023-01-10T05:47:45.535Z,76.79
2023-01-10T05:52:53.988Z,76.99
2023-01-10T05:58:03.057Z,76.86
2023-01-10T06:03:11.335Z,76.91
2023-01-10T06:08:19.766Z,76.78
2023-01-10T06:13:29.534Z,76.82
2023-01-10T06:18:37.789Z,76.84
2023-01-10T06:23:45.963Z,76.95
2023-01-10T06:28:54.550Z,76.81
2023-01-10T06:34:03.932Z,76.79
2023-01-10T06:39:12.667Z,77.00
2023-01-10T06:44:21.228Z,76.93
2023-01-10T06:49:30.314Z,76.68
2023-01-10T06:54:38.464Z,76.84
2023-01-10T06:59:46.660Z,76.84
2023-01-10T07:04:54.831Z,76.77
2023-01-10T07:10:04.013Z,76.63
2023-01-10T07:15:13.782Z,76.72
2023-01-10T07:20:22.256Z,76.52
2023-01-10T07:25:31.767Z,76.52
2023-01-10T07:30:40.133Z,76.64
2023-01-10T07:35:48.774Z,76.70
2023-01-10T07:40:57.182Z,76.63
2023-01-10T07:46:09.821Z,76.67
2023-01-10T07:51:18.365Z,76.59
2023-01-10T07:56:26.888Z,76.42
2023-01-10T08:01:35.532Z,76.44
2023-01-10T08:06:43.680Z,76.47
2023-01-10T08:11:52.095Z,76.61
2023-01-10T08:17:00.600Z,76.55
2023-01-10T08:22:09.332Z,76.57
2023-01-10T08:27:17.612Z,76.46
2023-01-10T08:32:25.864Z,76.50
2023-01-10T08:37:35.677Z,76.33
2023-01-10T08:42:43.952Z,76.29
2023-01-10T08:47:52.232Z,76.41
2023-01-10T08:53:01.473Z,76.31
2023-01-10T08:58:09.768Z,76.49
2023-01-10T09:03:18.422Z,76.46
2023-01-10T09:08:27.152Z,76.41
2023-01-10T09:13:36.234Z,76.34
2023-01-10T09:18:44.625Z,76.54
2023-01-10T09:23:52.839Z,76.30
2023-01-10T09:29:01.486Z,76.64
2023-01-10T09:34:09.997Z,76.57
2023-01-10T09:39:18.634Z,76.53
2023-01-10T09:44:43.910Z,76.39
2023-01-10T09:50:02.911Z,76.50
2023-01-10T09:55:25.582Z,76.34
2023-01-10T10:00:41.676Z,76.48
2023-01-10T10:05:51.509Z,76.34
2023-01-10T10:11:21.248Z,76.41
2023-01-10T10:16:39.943Z,76.46
2023-01-10T10:21:57.856Z,76.27
2023-01-10T10:27:16.475Z,76.38
2023-01-10T10:32:42.309Z,76.16
2023-01-10T10:37:52.667Z,76.29
2023-01-10T10:43:13.450Z,76.28
2023-01-10T10:48:29.117Z,76.29
2023-01-10T10:53:38.606Z,76.23
2023-01-10T10:58:50.556Z,76.35
2023-01-10T11:04:02.971Z,76.25
2023-01-10T11:09:13.302Z,76.36
2023-01-10T11:14:46.414Z,76.50
2023-01-10T11:20:03.400Z,76.36
2023-01-10T11:25:20.464Z,76.18
2023-01-10T11:30:32.202Z,76.09
2023-01-10T11:35:42.324Z,76.25
2023-01-10T11:40:59.351Z,76.29
2023-01-10T11:46:16.308Z,76.11
2023-01-10T11:51:29.128Z,76.18
2023-01-10T11:56:40.279Z,76.11
2023-01-10T12:01:56.328Z,76.04
2023-01-10T12:07:10.161Z,75.94
2023-01-10T12:12:25.916Z,76.08
2023-01-10T12:17:36.968Z,76.17
2023-01-10T12:22:47.541Z,76.10
2023-01-10T12:27:58.291Z,76.14
2023-01-10T12:33:09.399Z,76.17
2023-01-10T12:38:47.839Z,75.79
2023-01-10T12:44:16.833Z,76.12
2023-01-10T12:49:31.730Z,75.91
2023-01-10T12:54:40.357Z,75.92
2023-01-10T12:59:48.796Z,76.07
2023-01-10T13:05:02.968Z,75.94
2023-01-10T13:10:16.983Z,75.81
2023-01-10T13:15:31.870Z,76.02
2023-01-10T13:20:48.058Z,75.84
2023-01-10T13:26:09.454Z,75.88
2023-01-10T13:31:31.663Z,75.96
2023-01-10T13:36:44.586Z,76.08
2023-01-10T13:42:44.594Z,75.90
2023-01-10T13:48:13.356Z,75.74
2023-01-10T13:53:52.934Z,75.74
2023-01-10T13:59:20.133Z,75.81
2023-01-10T14:04:30.603Z,75.90
2023-01-10T14:09:45.322Z,75.79
2023-01-10T14:15:00.859Z,75.62
2023-01-10T14:20:19.719Z,75.81
2023-01-10T14:25:30.515Z,75.72
2023-01-10T14:30:41.657Z,75.56
2023-01-10T14:35:56.610Z,75.77
2023-01-10T14:41:08.695Z,75.44
2023-01-10T14:46:22.736Z,75.83
2023-01-10T14:51:32.527Z,75.81
2023-01-10T14:56:49.958Z,75.43
2023-01-10T15:02:02.993Z,75.49
2023-01-10T15:07:17.729Z,75.40
2023-01-10T15:12:29.340Z,75.32
2023-01-10T15:17:38.916Z,75.15
2023-01-10T15:22:50.260Z,75.27
2023-01-10T15:27:59.898Z,74.99
2023-01-10T15:33:13.761Z,74.97
2023-01-10T15:38:30.854Z,75.20
2023-01-10T15:43:40.706Z,75.39
2023-01-10T15:49:00.972Z,75.25
2023-01-10T15:54:30.333Z,75.24
2023-01-10T15:59:41.926Z,75.17
2023-01-10T16:04:53.645Z,75.02
2023-01-10T16:10:06.450Z,75.00
2023-01-10T16:15:22.329Z,74.92
2023-01-10T16:20:34.724Z,75.19
2023-01-10T16:25:45.042Z,74.87
2023-01-10T16:30:53.198Z,74.91
2023-01-10T16:36:02.857Z,74.89
2023-01-10T16:41:33.587Z,74.66
2023-01-10T16:46:42.060Z,74.78
2023-01-10T16:51:50.421Z,74.92
2023-01-10T16:56:58.849Z,74.72
2023-01-10T17:02:19.573Z,74.85
2023-01-10T17:07:27.961Z,74.79
2023-01-10T17:12:39.412Z,74.73
2023-01-10T17:17:47.713Z,74.95
2023-01-10T17:22:56.007Z,74.67
2023-01-10T17:28:05.460Z,74.53
2023-01-10T17:33:14.025Z,74.61
2023-01-10T17:38:23.569Z,74.61
2023-01-10T17:43:33.345Z,74.72
2023-01-10T17:48:42.125Z,74.75
2023-01-10T17:53:50.889Z,74.91
2023-01-10T17:58:59.142Z,74.79
2023-01-10T18:04:08.626Z,74.99
2023-01-10T18:09:17.185Z,74.75
2023-01-10T18:14:39.019Z,75.01
2023-01-10T18:19:48.166Z,75.18
2023-01-10T18:24:57.761Z,75.02
2023-01-10T18:30:06.615Z,75.08
2023-01-10T18:35:15.298Z,75.10
2023-01-10T18:40:23.991Z,75.12
2023-01-10T18:45:32.625Z,75.08
2023-01-10T18:50:41.411Z,75.27
2023-01-10T18:55:59.035Z,75.38
2023-01-10T19:01:14.545Z,75.29
2023-01-10T19:06:25.943Z,75.06
2023-01-10T19:11:34.509Z,75.16
2023-01-10T19:16:42.932Z,75.00
2023-01-10T19:21:51.445Z,75.09
2023-01-10T19:27:00.406Z,75.01
2023-01-10T19:32:09.096Z,74.97
2023-01-10T19:37:17.417Z,75.10
2023-01-10T19:42:26.259Z,74.95
2023-01-10T19:47:34.757Z,75.09
2023-01-10T19:52:44.032Z,75.01
2023-01-10T19:57:52.647Z,75.20
2023-01-10T20:03:01.141Z,75.30
2023-01-10T20:08:09.925Z,75.38
2023-01-10T20:13:18.241Z,75.50
2023-01-10T20:18:26.689Z,75.42
2023-01-10T20:23:36.622Z,75.28
2023-01-10T20:28:46.105Z,75.28
2023-01-10T20:33:54.563Z,75.38
2023-01-10T20:39:03.223Z,75.47
2023-01-10T20:44:11.405Z,75.25
2023-01-10T20:49:19.700Z,75.15
2023-01-10T20:54:28.456Z,75.29
2023-01-10T20:59:37.197Z,74.95
2023-01-10T21:04:45.518Z,74.93
2023-01-10T21:09:54.496Z,75.17
2023-01-10T21:15:03.256Z,74.98
2023-01-10T21:20:14.259Z,74.98
2023-01-10T21:25:22.693Z,74.69
2023-01-10T21:30:31.371Z,74.95
2023-01-10T21:35:40.689Z,74.79
2023-01-10T21:40:48.863Z,75.05
2023-01-10T21:46:01.952Z,75.13
2023-01-10T21:51:10.491Z,75.12
2023-01-10T21:56:18.824Z,74.99
2023-01-10T22:01:27.039Z,74.97
2023-01-10T22:06:35.558Z,74.87
2023-01-10T22:11:44.155Z,74.65
2023-01-10T22:16:52.543Z,74.76
2023-01-10T22:22:01.582Z,74.40
2023-01-10T22:27:10.230Z,74.33
2023-01-10T22:32:18.981Z,74.29
2023-01-10T22:37:27.207Z,74.46
2023-01-10T22:42:35.806Z,74.23
2023-01-10T22:47:44.573Z,74.22
2023-01-10T22:52:53.488Z,73.92
2023-01-10T22:58:02.251Z,74.35
2023-01-10T23:03:10.795Z,74.27
2023-01-10T23:08:19.047Z,74.42
2023-01-10T23:13:28.462Z,74.49
2023-01-10T23:18:37.615Z,74.50
2023-01-10T23:23:47.120Z,74.91
2023-01-10T23:28:55.582Z,74.71
2023-01-10T23:34:03.905Z,75.01
2023-01-10T23:39:12.906Z,74.91
2023-01-10T23:44:21.427Z,74.86
2023-01-10T23:49:30.775Z,75.03
2023-01-10T23:54:39.475Z,75.14
2023-01-10T23:59:47.800Z,75.22
